sensor_id;sensor_type;location;lat;lon;timestamp;pressure;altitude;pressure_sealevel;temperature;humidity
40788;BME280;26497;52.494;7.546;2023-10-31T00:02:23;98719.78;;;17.60;77.53
40788;BME280;26497;52.494;7.546;2023-10-31T00:04:50;98707.78;;;17.52;78.01
40788;BME280;26497;52.494;7.546;2023-10-31T00:07:18;98706.38;;;17.61;77.66
40788;BME280;26497;52.494;7.546;2023-10-31T00:09:45;98720.00;;;17.71;77.57
40788;BME280;26497;52.494;7.546;2023-10-31T00:12:12;98715.16;;;17.63;77.85
40788;BME280;26497;52.494;7.546;2023-10-31T00:14:40;98708.56;;;17.69;77.74
40788;BME280;26497;52.494;7.546;2023-10-31T00:17:07;98710.94;;;17.59;78.42
40788;BME280;26497;52.494;7.546;2023-10-31T00:19:34;98714.63;;;17.57;78.64
40788;BME280;26497;52.494;7.546;2023-10-31T00:22:01;98705.91;;;17.69;78.55
40788;BME280;26497;52.494;7.546;2023-10-31T00:24:28;98691.16;;;17.63;78.35
40788;BME280;26497;52.494;7.546;2023-10-31T00:26:55;98688.09;;;17.55;78.92
40788;BME280;26497;52.494;7.546;2023-10-31T00:29:22;98689.72;;;17.58;78.78
40788;BME280;26497;52.494;7.546;2023-10-31T00:31:50;98692.88;;;17.79;78.15
40788;BME280;26497;52.494;7.546;2023-10-31T00:34:17;98692.69;;;17.82;77.78
40788;BME280;26497;52.494;7.546;2023-10-31T00:36:44;98695.44;;;17.80;77.90
40788;BME280;26497;52.494;7.546;2023-10-31T00:39:11;98688.41;;;17.94;77.55
40788;BME280;26497;52.494;7.546;2023-10-31T00:41:43;98689.53;;;17.90;77.59
40788;BME280;26497;52.494;7.546;2023-10-31T00:44:10;98691.44;;;17.88;77.40
40788;BME280;26497;52.494;7.546;2023-10-31T00:46:37;98692.31;;;17.74;78.17
40788;BME280;26497;52.494;7.546;2023-10-31T00:49:05;98697.25;;;17.80;78.12
40788;BME280;26497;52.494;7.546;2023-10-31T00:51:32;98690.50;;;17.89;77.79
40788;BME280;26497;52.494;7.546;2023-10-31T00:53:59;98688.50;;;17.78;78.29
40788;BME280;26497;52.494;7.546;2023-10-31T00:56:26;98685.53;;;17.82;78.02
40788;BME280;26497;52.494;7.546;2023-10-31T00:58:53;98675.81;;;17.67;78.58
40788;BME280;26497;52.494;7.546;2023-10-31T01:01:20;98674.38;;;17.47;79.99
40788;BME280;26497;52.494;7.546;2023-10-31T01:03:47;98675.63;;;17.56;79.84
40788;BME280;26497;52.494;7.546;2023-10-31T01:06:16;98671.72;;;17.47;80.23
40788;BME280;26497;52.494;7.546;2023-10-31T01:08:44;98665.91;;;17.54;80.42
40788;BME280;26497;52.494;7.546;2023-10-31T01:11:11;98659.63;;;17.70;79.41
40788;BME280;26497;52.494;7.546;2023-10-31T01:13:38;98659.38;;;17.60;79.79
40788;BME280;26497;52.494;7.546;2023-10-31T01:16:06;98651.25;;;17.62;79.85
40788;BME280;26497;52.494;7.546;2023-10-31T01:18:33;98653.66;;;17.52;80.30
40788;BME280;26497;52.494;7.546;2023-10-31T01:21:00;98652.19;;;17.46;81.03
40788;BME280;26497;52.494;7.546;2023-10-31T01:23:28;98646.13;;;17.59;80.52
40788;BME280;26497;52.494;7.546;2023-10-31T01:25:55;98649.84;;;17.56;80.23
40788;BME280;26497;52.494;7.546;2023-10-31T01:28:22;98641.84;;;17.42;81.26
40788;BME280;26497;52.494;7.546;2023-10-31T01:30:49;98634.22;;;17.50;80.86
40788;BME280;26497;52.494;7.546;2023-10-31T01:33:16;98638.50;;;17.52;80.46
40788;BME280;26497;52.494;7.546;2023-10-31T01:35:43;98633.66;;;17.59;80.36
40788;BME280;26497;52.494;7.546;2023-10-31T01:38:10;98637.44;;;17.26;81.87
40788;BME280;26497;52.494;7.546;2023-10-31T01:40:38;98630.81;;;17.48;81.37
40788;BME280;26497;52.494;7.546;2023-10-31T01:43:05;98634.13;;;17.51;81.36
40788;BME280;26497;52.494;7.546;2023-10-31T01:45:32;98631.38;;;17.67;80.44
40788;BME280;26497;52.494;7.546;2023-10-31T01:47:59;98639.06;;;17.58;80.53
40788;BME280;26497;52.494;7.546;2023-10-31T01:50:26;98636.13;;;17.62;80.29
40788;BME280;26497;52.494;7.546;2023-10-31T01:52:54;98633.84;;;17.71;80.08
40788;BME280;26497;52.494;7.546;2023-10-31T01:55:21;98639.00;;;17.74;80.12
40788;BME280;26497;52.494;7.546;2023-10-31T01:57:54;98638.88;;;17.75;79.75
40788;BME280;26497;52.494;7.546;2023-10-31T02:00:21;98619.75;;;17.83;79.33
40788;BME280;26497;52.494;7.546;2023-10-31T02:02:48;98624.72;;;17.60;79.96
40788;BME280;26497;52.494;7.546;2023-10-31T02:05:18;98623.19;;;17.56;80.51
40788;BME280;26497;52.494;7.546;2023-10-31T02:07:45;98629.91;;;17.33;81.73
40788;BME280;26497;52.494;7.546;2023-10-31T02:10:13;98630.03;;;17.46;81.40
40788;BME280;26497;52.494;7.546;2023-10-31T02:12:40;98614.81;;;17.33;81.56
40788;BME280;26497;52.494;7.546;2023-10-31T02:15:10;98620.41;;;17.14;83.01
40788;BME280;26497;52.494;7.546;2023-10-31T02:17:37;98609.81;;;17.13;83.76
40788;BME280;26497;52.494;7.546;2023-10-31T02:20:05;98614.47;;;17.23;83.19
40788;BME280;26497;52.494;7.546;2023-10-31T02:22:34;98616.69;;;17.17;83.58
40788;BME280;26497;52.494;7.546;2023-10-31T02:25:01;98623.06;;;17.14;83.40
40788;BME280;26497;52.494;7.546;2023-10-31T02:27:28;98634.16;;;17.06;83.68
40788;BME280;26497;52.494;7.546;2023-10-31T02:29:55;98639.22;;;16.95;84.55
40788;BME280;26497;52.494;7.546;2023-10-31T02:32:22;98637.38;;;16.97;84.49
40788;BME280;26497;52.494;7.546;2023-10-31T02:34:49;98630.53;;;17.07;83.80
40788;BME280;26497;52.494;7.546;2023-10-31T02:37:16;98632.41;;;17.21;82.79
40788;BME280;26497;52.494;7.546;2023-10-31T02:39:45;98638.09;;;17.30;82.15
40788;BME280;26497;52.494;7.546;2023-10-31T02:42:11;98636.88;;;17.35;82.15
40788;BME280;26497;52.494;7.546;2023-10-31T02:44:40;98637.53;;;17.39;81.49
40788;BME280;26497;52.494;7.546;2023-10-31T02:47:07;98653.94;;;17.02;82.33
40788;BME280;26497;52.494;7.546;2023-10-31T02:49:34;98651.28;;;16.86;81.46
40788;BME280;26497;52.494;7.546;2023-10-31T02:52:01;98663.72;;;16.39;82.19
40788;BME280;26497;52.494;7.546;2023-10-31T02:54:28;98676.84;;;15.76;82.40
40788;BME280;26497;52.494;7.546;2023-10-31T02:56:57;98670.00;;;15.55;82.91
40788;BME280;26497;52.494;7.546;2023-10-31T02:59:24;98674.06;;;15.62;82.14
40788;BME280;26497;52.494;7.546;2023-10-31T03:01:53;98682.53;;;15.17;83.49
40788;BME280;26497;52.494;7.546;2023-10-31T03:04:21;98686.38;;;15.12;82.99
40788;BME280;26497;52.494;7.546;2023-10-31T03:06:48;98698.16;;;15.06;83.00
40788;BME280;26497;52.494;7.546;2023-10-31T03:09:16;98706.84;;;15.10;82.20
40788;BME280;26497;52.494;7.546;2023-10-31T03:11:43;98707.94;;;15.06;82.06
40788;BME280;26497;52.494;7.546;2023-10-31T03:14:11;98706.72;;;14.94;81.99
40788;BME280;26497;52.494;7.546;2023-10-31T03:16:40;98721.31;;;14.85;81.80
40788;BME280;26497;52.494;7.546;2023-10-31T03:19:07;98721.16;;;14.88;81.89
40788;BME280;26497;52.494;7.546;2023-10-31T03:21:34;98731.88;;;14.48;82.93
40788;BME280;26497;52.494;7.546;2023-10-31T03:24:02;98742.84;;;14.40;83.92
40788;BME280;26497;52.494;7.546;2023-10-31T03:26:29;98741.91;;;14.41;83.49
40788;BME280;26497;52.494;7.546;2023-10-31T03:28:56;98766.09;;;14.54;82.17
40788;BME280;26497;52.494;7.546;2023-10-31T03:31:25;98771.25;;;14.57;81.87
40788;BME280;26497;52.494;7.546;2023-10-31T03:33:52;98776.97;;;14.67;81.86
40788;BME280;26497;52.494;7.546;2023-10-31T03:36:19;98790.22;;;14.67;80.95
40788;BME280;26497;52.494;7.546;2023-10-31T03:38:46;98792.16;;;14.44;82.52
40788;BME280;26497;52.494;7.546;2023-10-31T03:41:13;98786.78;;;14.65;81.33
40788;BME280;26497;52.494;7.546;2023-10-31T03:43:40;98798.06;;;14.70;80.55
40788;BME280;26497;52.494;7.546;2023-10-31T03:46:07;98805.19;;;14.30;82.36
40788;BME280;26497;52.494;7.546;2023-10-31T03:48:35;98813.78;;;14.35;82.24
40788;BME280;26497;52.494;7.546;2023-10-31T03:51:03;98830.19;;;14.24;82.82
40788;BME280;26497;52.494;7.546;2023-10-31T03:53:30;98826.56;;;14.46;81.51
40788;BME280;26497;52.494;7.546;2023-10-31T03:55:59;98841.19;;;14.55;81.04
40788;BME280;26497;52.494;7.546;2023-10-31T03:58:26;98838.66;;;14.33;81.81
40788;BME280;26497;52.494;7.546;2023-10-31T04:00:53;98854.69;;;14.50;81.27
40788;BME280;26497;52.494;7.546;2023-10-31T04:03:20;98851.78;;;14.36;82.36
40788;BME280;26497;52.494;7.546;2023-10-31T04:05:49;98850.78;;;14.38;81.89
40788;BME280;26497;52.494;7.546;2023-10-31T04:08:16;98868.03;;;14.07;83.42
40788;BME280;26497;52.494;7.546;2023-10-31T04:10:43;98879.13;;;14.17;83.32
40788;BME280;26497;52.494;7.546;2023-10-31T04:13:10;98876.84;;;14.28;82.79
40788;BME280;26497;52.494;7.546;2023-10-31T04:15:37;98869.16;;;14.43;81.70
40788;BME280;26497;52.494;7.546;2023-10-31T04:18:04;98875.44;;;14.59;80.79
40788;BME280;26497;52.494;7.546;2023-10-31T04:20:31;98885.91;;;14.43;82.18
40788;BME280;26497;52.494;7.546;2023-10-31T04:22:59;98873.56;;;14.42;82.12
40788;BME280;26497;52.494;7.546;2023-10-31T04:25:26;98882.28;;;14.65;80.77
40788;BME280;26497;52.494;7.546;2023-10-31T04:27:54;98880.00;;;14.57;81.11
40788;BME280;26497;52.494;7.546;2023-10-31T04:30:22;98892.50;;;14.35;82.08
40788;BME280;26497;52.494;7.546;2023-10-31T04:32:49;98900.75;;;14.48;81.66
40788;BME280;26497;52.494;7.546;2023-10-31T04:35:15;98909.91;;;14.40;82.60
40788;BME280;26497;52.494;7.546;2023-10-31T04:37:42;98906.56;;;14.77;80.71
40788;BME280;26497;52.494;7.546;2023-10-31T04:40:12;98923.06;;;14.63;80.98
40788;BME280;26497;52.494;7.546;2023-10-31T04:42:39;98911.47;;;14.65;80.86
40788;BME280;26497;52.494;7.546;2023-10-31T04:45:08;98924.31;;;14.55;81.12
40788;BME280;26497;52.494;7.546;2023-10-31T04:47:35;98926.69;;;14.41;81.68
40788;BME280;26497;52.494;7.546;2023-10-31T04:50:03;98928.34;;;14.43;81.51
40788;BME280;26497;52.494;7.546;2023-10-31T04:52:30;98939.97;;;14.41;82.02
40788;BME280;26497;52.494;7.546;2023-10-31T04:54:56;98938.13;;;14.62;81.19
40788;BME280;26497;52.494;7.546;2023-10-31T04:57:25;98949.03;;;14.56;81.24
40788;BME280;26497;52.494;7.546;2023-10-31T04:59:52;98947.16;;;14.58;80.81
40788;BME280;26497;52.494;7.546;2023-10-31T05:02:21;98948.56;;;14.46;81.61
40788;BME280;26497;52.494;7.546;2023-10-31T05:04:48;98954.06;;;14.62;80.89
40788;BME280;26497;52.494;7.546;2023-10-31T05:07:16;98955.03;;;14.59;81.03
40788;BME280;26497;52.494;7.546;2023-10-31T05:09:43;98958.47;;;14.62;80.48
40788;BME280;26497;52.494;7.546;2023-10-31T05:12:10;98962.38;;;14.34;81.86
40788;BME280;26497;52.494;7.546;2023-10-31T05:14:40;98963.66;;;14.65;80.63
40788;BME280;26497;52.494;7.546;2023-10-31T05:17:07;98974.63;;;14.78;80.07
40788;BME280;26497;52.494;7.546;2023-10-31T05:19:34;98964.13;;;14.95;79.42
40788;BME280;26497;52.494;7.546;2023-10-31T05:22:01;98973.34;;;14.86;78.99
40788;BME280;26497;52.494;7.546;2023-10-31T05:24:28;98977.06;;;14.82;79.25
40788;BME280;26497;52.494;7.546;2023-10-31T05:26:55;98977.16;;;14.81;79.22
40788;BME280;26497;52.494;7.546;2023-10-31T05:29:22;98974.91;;;14.71;79.84
40788;BME280;26497;52.494;7.546;2023-10-31T05:31:50;98976.78;;;14.88;78.73
40788;BME280;26497;52.494;7.546;2023-10-31T05:34:17;98977.13;;;15.01;77.96
40788;BME280;26497;52.494;7.546;2023-10-31T05:36:44;99000.94;;;14.82;78.25
40788;BME280;26497;52.494;7.546;2023-10-31T05:39:11;99000.88;;;14.42;80.19
40788;BME280;26497;52.494;7.546;2023-10-31T05:41:38;99008.69;;;14.66;79.73
40788;BME280;26497;52.494;7.546;2023-10-31T05:44:05;98998.09;;;14.66;79.44
40788;BME280;26497;52.494;7.546;2023-10-31T05:46:32;99002.72;;;14.61;79.42
40788;BME280;26497;52.494;7.546;2023-10-31T05:49:06;99015.09;;;14.83;78.84
40788;BME280;26497;52.494;7.546;2023-10-31T05:51:33;99009.75;;;14.62;78.99
40788;BME280;26497;52.494;7.546;2023-10-31T05:54:01;99012.72;;;14.77;79.38
40788;BME280;26497;52.494;7.546;2023-10-31T05:56:28;99012.16;;;14.68;79.10
40788;BME280;26497;52.494;7.546;2023-10-31T05:58:55;99019.53;;;14.82;78.50
40788;BME280;26497;52.494;7.546;2023-10-31T06:01:22;99023.91;;;14.83;78.83
40788;BME280;26497;52.494;7.546;2023-10-31T06:03:49;99027.13;;;15.11;77.54
40788;BME280;26497;52.494;7.546;2023-10-31T06:06:18;99027.16;;;14.90;77.83
40788;BME280;26497;52.494;7.546;2023-10-31T06:08:45;99025.06;;;14.78;78.58
40788;BME280;26497;52.494;7.546;2023-10-31T06:11:12;99036.16;;;14.65;79.27
40788;BME280;26497;52.494;7.546;2023-10-31T06:13:39;99035.03;;;14.92;78.20
40788;BME280;26497;52.494;7.546;2023-10-31T06:16:07;99051.19;;;14.87;77.81
40788;BME280;26497;52.494;7.546;2023-10-31T06:18:34;99044.81;;;14.91;77.49
40788;BME280;26497;52.494;7.546;2023-10-31T06:21:01;99062.25;;;14.76;77.96
40788;BME280;26497;52.494;7.546;2023-10-31T06:23:29;99068.09;;;14.41;79.70
40788;BME280;26497;52.494;7.546;2023-10-31T06:25:56;99068.34;;;14.57;79.21
40788;BME280;26497;52.494;7.546;2023-10-31T06:28:24;99075.22;;;14.41;79.93
40788;BME280;26497;52.494;7.546;2023-10-31T06:30:51;99072.44;;;14.65;78.89
40788;BME280;26497;52.494;7.546;2023-10-31T06:33:17;99075.88;;;14.67;78.77
40788;BME280;26497;52.494;7.546;2023-10-31T06:35:44;99080.66;;;14.81;78.28
40788;BME280;26497;52.494;7.546;2023-10-31T06:38:11;99080.38;;;14.65;79.07
40788;BME280;26497;52.494;7.546;2023-10-31T06:40:40;99087.41;;;14.88;78.35
40788;BME280;26497;52.494;7.546;2023-10-31T06:43:07;99094.03;;;14.78;78.88
40788;BME280;26497;52.494;7.546;2023-10-31T06:45:34;99089.53;;;14.80;78.49
40788;BME280;26497;52.494;7.546;2023-10-31T06:48:02;99095.25;;;14.91;78.59
40788;BME280;26497;52.494;7.546;2023-10-31T06:50:29;99095.78;;;14.99;78.19
40788;BME280;26497;52.494;7.546;2023-10-31T06:52:58;99104.84;;;14.94;78.73
40788;BME280;26497;52.494;7.546;2023-10-31T06:55:25;99112.53;;;15.00;78.70
40788;BME280;26497;52.494;7.546;2023-10-31T06:57:54;99112.53;;;15.00;78.69
40788;BME280;26497;52.494;7.546;2023-10-31T07:00:21;99114.03;;;15.26;77.92
40788;BME280;26497;52.494;7.546;2023-10-31T07:02:48;99113.91;;;15.29;77.00
40788;BME280;26497;52.494;7.546;2023-10-31T07:05:15;99124.97;;;15.20;77.67
40788;BME280;26497;52.494;7.546;2023-10-31T07:07:42;99124.22;;;15.16;77.27
40788;BME280;26497;52.494;7.546;2023-10-31T07:10:09;99132.19;;;14.96;77.80
40788;BME280;26497;52.494;7.546;2023-10-31T07:12:36;99133.38;;;14.88;78.45
40788;BME280;26497;52.494;7.546;2023-10-31T07:15:06;99126.84;;;14.97;77.76
40788;BME280;26497;52.494;7.546;2023-10-31T07:17:33;99134.13;;;15.13;77.47
40788;BME280;26497;52.494;7.546;2023-10-31T07:20:01;99139.09;;;15.00;77.37
40788;BME280;26497;52.494;7.546;2023-10-31T07:22:28;99140.94;;;14.98;77.56
40788;BME280;26497;52.494;7.546;2023-10-31T07:24:55;99144.78;;;14.91;77.68
40788;BME280;26497;52.494;7.546;2023-10-31T07:27:23;99141.69;;;15.01;77.33
40788;BME280;26497;52.494;7.546;2023-10-31T07:29:50;99142.25;;;14.87;77.70
40788;BME280;26497;52.494;7.546;2023-10-31T07:32:18;99139.34;;;14.94;78.02
40788;BME280;26497;52.494;7.546;2023-10-31T07:34:45;99144.13;;;15.06;77.96
40788;BME280;26497;52.494;7.546;2023-10-31T07:37:12;99157.22;;;15.11;77.39
40788;BME280;26497;52.494;7.546;2023-10-31T07:39:39;99154.81;;;15.25;77.32
40788;BME280;26497;52.494;7.546;2023-10-31T07:42:06;99156.25;;;15.32;77.22
40788;BME280;26497;52.494;7.546;2023-10-31T07:44:33;99157.69;;;15.21;76.89
40788;BME280;26497;52.494;7.546;2023-10-31T07:47:00;99151.50;;;14.99;77.51
40788;BME280;26497;52.494;7.546;2023-10-31T07:49:28;99150.06;;;14.92;78.58
40788;BME280;26497;52.494;7.546;2023-10-31T07:51:56;99159.13;;;15.28;78.21
40788;BME280;26497;52.494;7.546;2023-10-31T07:54:22;99154.97;;;15.22;77.54
40788;BME280;26497;52.494;7.546;2023-10-31T07:56:49;99150.72;;;14.97;77.11
40788;BME280;26497;52.494;7.546;2023-10-31T07:59:16;99155.41;;;15.11;78.03
40788;BME280;26497;52.494;7.546;2023-10-31T08:01:43;99147.28;;;15.56;76.18
40788;BME280;26497;52.494;7.546;2023-10-31T08:04:10;99158.25;;;15.48;75.84
40788;BME280;26497;52.494;7.546;2023-10-31T08:06:38;99162.00;;;15.23;76.61
40788;BME280;26497;52.494;7.546;2023-10-31T08:09:05;99155.97;;;15.59;76.13
40788;BME280;26497;52.494;7.546;2023-10-31T08:11:32;99158.13;;;15.30;75.74
40788;BME280;26497;52.494;7.546;2023-10-31T08:14:00;99156.47;;;15.48;75.39
40788;BME280;26497;52.494;7.546;2023-10-31T08:16:28;99159.56;;;15.58;75.20
40788;BME280;26497;52.494;7.546;2023-10-31T08:18:56;99166.97;;;15.71;74.50
40788;BME280;26497;52.494;7.546;2023-10-31T08:21:23;99171.19;;;16.15;73.49
40788;BME280;26497;52.494;7.546;2023-10-31T08:23:52;99171.28;;;16.13;72.70
40788;BME280;26497;52.494;7.546;2023-10-31T08:26:19;99173.34;;;16.26;72.35
40788;BME280;26497;52.494;7.546;2023-10-31T08:28:46;99173.25;;;16.27;72.23
40788;BME280;26497;52.494;7.546;2023-10-31T08:31:13;99175.81;;;16.11;72.38
40788;BME280;26497;52.494;7.546;2023-10-31T08:33:40;99186.16;;;16.17;72.49
40788;BME280;26497;52.494;7.546;2023-10-31T08:36:08;99187.28;;;15.92;72.68
40788;BME280;26497;52.494;7.546;2023-10-31T08:38:35;99195.25;;;16.12;72.98
40788;BME280;26497;52.494;7.546;2023-10-31T08:41:04;99192.88;;;16.05;72.49
40788;BME280;26497;52.494;7.546;2023-10-31T08:43:31;99190.19;;;15.88;73.21
40788;BME280;26497;52.494;7.546;2023-10-31T08:45:58;99203.47;;;15.67;73.92
40788;BME280;26497;52.494;7.546;2023-10-31T08:48:25;99196.47;;;16.04;72.95
40788;BME280;26497;52.494;7.546;2023-10-31T08:50:52;99205.84;;;16.13;71.75
40788;BME280;26497;52.494;7.546;2023-10-31T08:53:19;99210.44;;;16.10;72.60
40788;BME280;26497;52.494;7.546;2023-10-31T08:55:47;99203.88;;;16.17;72.02
40788;BME280;26497;52.494;7.546;2023-10-31T08:58:15;99205.41;;;16.03;72.90
40788;BME280;26497;52.494;7.546;2023-10-31T09:00:43;99220.34;;;16.06;72.16
40788;BME280;26497;52.494;7.546;2023-10-31T09:03:10;99218.47;;;15.89;72.42
40788;BME280;26497;52.494;7.546;2023-10-31T09:05:37;99231.44;;;15.55;73.85
40788;BME280;26497;52.494;7.546;2023-10-31T09:08:05;99223.53;;;15.54;74.22
40788;BME280;26497;52.494;7.546;2023-10-31T09:10:32;99223.13;;;15.63;75.23
40788;BME280;26497;52.494;7.546;2023-10-31T09:12:59;99228.75;;;15.97;74.46
40788;BME280;26497;52.494;7.546;2023-10-31T09:15:28;99220.78;;;15.97;75.02
40788;BME280;26497;52.494;7.546;2023-10-31T09:17:55;99227.03;;;15.96;75.06
40788;BME280;26497;52.494;7.546;2023-10-31T09:20:22;99232.13;;;16.00;74.77
40788;BME280;26497;52.494;7.546;2023-10-31T09:22:50;99232.25;;;15.97;75.58
40788;BME280;26497;52.494;7.546;2023-10-31T09:25:18;99239.91;;;16.05;75.75
40788;BME280;26497;52.494;7.546;2023-10-31T09:27:45;99235.59;;;16.21;76.43
40788;BME280;26497;52.494;7.546;2023-10-31T09:30:18;99239.34;;;16.36;75.12
40788;BME280;26497;52.494;7.546;2023-10-31T09:32:46;99255.94;;;16.42;75.12
40788;BME280;26497;52.494;7.546;2023-10-31T09:35:13;99254.81;;;16.84;72.43
40788;BME280;26497;52.494;7.546;2023-10-31T09:37:41;99249.34;;;16.87;71.97
40788;BME280;26497;52.494;7.546;2023-10-31T09:40:09;99260.56;;;16.94;72.09
40788;BME280;26497;52.494;7.546;2023-10-31T09:42:36;99261.56;;;17.10;72.19
40788;BME280;26497;52.494;7.546;2023-10-31T09:45:05;99271.50;;;17.24;71.53
40788;BME280;26497;52.494;7.546;2023-10-31T09:47:35;99262.03;;;17.19;68.99
40788;BME280;26497;52.494;7.546;2023-10-31T09:50:04;99273.50;;;17.56;69.34
40788;BME280;26497;52.494;7.546;2023-10-31T09:52:32;99279.53;;;18.11;68.67
40788;BME280;26497;52.494;7.546;2023-10-31T09:54:59;99279.28;;;17.82;66.88
40788;BME280;26497;52.494;7.546;2023-10-31T09:57:27;99281.88;;;18.17;65.53
40788;BME280;26497;52.494;7.546;2023-10-31T09:59:54;99294.59;;;17.94;65.05
40788;BME280;26497;52.494;7.546;2023-10-31T10:02:21;99285.25;;;17.69;64.80
40788;BME280;26497;52.494;7.546;2023-10-31T10:04:49;99301.00;;;17.57;65.90
40788;BME280;26497;52.494;7.546;2023-10-31T10:07:18;99304.50;;;17.22;66.16
40788;BME280;26497;52.494;7.546;2023-10-31T10:09:46;99308.44;;;16.57;67.98
40788;BME280;26497;52.494;7.546;2023-10-31T10:12:16;99315.25;;;16.25;69.22
40788;BME280;26497;52.494;7.546;2023-10-31T10:14:45;99322.97;;;16.31;69.97
40788;BME280;26497;52.494;7.546;2023-10-31T10:17:16;99330.94;;;16.31;70.33
40788;BME280;26497;52.494;7.546;2023-10-31T10:19:43;99336.78;;;16.39;69.50
40788;BME280;26497;52.494;7.546;2023-10-31T10:22:10;99334.53;;;16.30;69.88
40788;BME280;26497;52.494;7.546;2023-10-31T10:24:42;99341.59;;;16.50;69.66
40788;BME280;26497;52.494;7.546;2023-10-31T10:27:11;99345.63;;;16.59;69.17
40788;BME280;26497;52.494;7.546;2023-10-31T10:29:39;99341.13;;;16.21;69.72
40788;BME280;26497;52.494;7.546;2023-10-31T10:32:07;99348.91;;;16.45;70.06
40788;BME280;26497;52.494;7.546;2023-10-31T10:34:35;99343.97;;;16.37;70.24
40788;BME280;26497;52.494;7.546;2023-10-31T10:37:05;99351.31;;;16.89;71.38
40788;BME280;26497;52.494;7.546;2023-10-31T10:39:33;99351.19;;;18.01;68.53
40788;BME280;26497;52.494;7.546;2023-10-31T10:42:09;99352.84;;;19.19;60.15
40788;BME280;26497;52.494;7.546;2023-10-31T10:44:39;99356.34;;;20.42;58.79
40788;BME280;26497;52.494;7.546;2023-10-31T10:47:12;99354.13;;;20.48;55.19
40788;BME280;26497;52.494;7.546;2023-10-31T10:49:42;99346.84;;;20.22;55.27
40788;BME280;26497;52.494;7.546;2023-10-31T10:52:20;99354.41;;;20.00;57.19
40788;BME280;26497;52.494;7.546;2023-10-31T10:54:53;99346.66;;;20.10;56.09
40788;BME280;26497;52.494;7.546;2023-10-31T10:57:32;99355.00;;;20.49;52.87
40788;BME280;26497;52.494;7.546;2023-10-31T11:00:05;99340.44;;;20.68;51.75
40788;BME280;26497;52.494;7.546;2023-10-31T11:02:36;99356.13;;;20.59;54.05
40788;BME280;26497;52.494;7.546;2023-10-31T11:05:06;99348.88;;;21.45;54.20
40788;BME280;26497;52.494;7.546;2023-10-31T11:07:34;99348.50;;;21.64;48.97
40788;BME280;26497;52.494;7.546;2023-10-31T11:10:03;99355.31;;;21.83;50.31
40788;BME280;26497;52.494;7.546;2023-10-31T11:12:33;99358.88;;;21.84;48.19
40788;BME280;26497;52.494;7.546;2023-10-31T11:15:02;99359.03;;;21.68;49.87
40788;BME280;26497;52.494;7.546;2023-10-31T11:17:33;99360.25;;;21.89;49.26
40788;BME280;26497;52.494;7.546;2023-10-31T11:20:02;99369.63;;;22.22;48.15
40788;BME280;26497;52.494;7.546;2023-10-31T11:22:37;99372.09;;;22.13;47.62
40788;BME280;26497;52.494;7.546;2023-10-31T11:25:07;99364.25;;;21.84;48.06
40788;BME280;26497;52.494;7.546;2023-10-31T11:27:36;99365.25;;;22.60;47.82
40788;BME280;26497;52.494;7.546;2023-10-31T11:30:07;99378.69;;;22.47;45.81
40788;BME280;26497;52.494;7.546;2023-10-31T11:32:34;99372.94;;;22.78;46.10
40788;BME280;26497;52.494;7.546;2023-10-31T11:35:01;99372.13;;;23.39;46.55
40788;BME280;26497;52.494;7.546;2023-10-31T11:37:33;99380.47;;;22.73;45.74
40788;BME280;26497;52.494;7.546;2023-10-31T11:40:24;99384.16;;;22.46;45.78
40788;BME280;26497;52.494;7.546;2023-10-31T11:42:53;99371.31;;;21.85;47.66
40788;BME280;26497;52.494;7.546;2023-10-31T11:45:29;99385.78;;;21.00;48.45
40788;BME280;26497;52.494;7.546;2023-10-31T11:47:56;99387.22;;;20.33;50.38
40788;BME280;26497;52.494;7.546;2023-10-31T11:50:24;99395.16;;;20.78;51.68
40788;BME280;26497;52.494;7.546;2023-10-31T11:53:02;99400.59;;;21.20;51.46
40788;BME280;26497;52.494;7.546;2023-10-31T11:55:31;99398.31;;;21.41;50.11
40788;BME280;26497;52.494;7.546;2023-10-31T11:58:15;99408.28;;;21.39;51.38
40788;BME280;26497;52.494;7.546;2023-10-31T12:00:42;99411.22;;;20.63;53.40
40788;BME280;26497;52.494;7.546;2023-10-31T12:03:10;99427.88;;;20.09;56.54
40788;BME280;26497;52.494;7.546;2023-10-31T12:05:37;99434.56;;;19.23;59.46
40788;BME280;26497;52.494;7.546;2023-10-31T12:08:04;99445.47;;;18.53;61.82
40788;BME280;26497;52.494;7.546;2023-10-31T12:10:31;99440.06;;;18.19;63.86
40788;BME280;26497;52.494;7.546;2023-10-31T12:13:00;99445.03;;;17.73;65.90
40788;BME280;26497;52.494;7.546;2023-10-31T12:15:27;99452.56;;;17.64;67.02
40788;BME280;26497;52.494;7.546;2023-10-31T12:17:58;99451.28;;;17.35;68.51
40788;BME280;26497;52.494;7.546;2023-10-31T12:20:25;99454.47;;;17.24;68.67
40788;BME280;26497;52.494;7.546;2023-10-31T12:23:03;99464.44;;;17.20;69.40
40788;BME280;26497;52.494;7.546;2023-10-31T12:25:30;99472.25;;;17.23;69.70
40788;BME280;26497;52.494;7.546;2023-10-31T12:28:02;99488.16;;;17.25;70.03
40788;BME280;26497;52.494;7.546;2023-10-31T12:30:29;99481.34;;;17.19;70.16
40788;BME280;26497;52.494;7.546;2023-10-31T12:32:56;99483.50;;;17.11;70.26
40788;BME280;26497;52.494;7.546;2023-10-31T12:35:26;99487.38;;;17.04;70.56
40788;BME280;26497;52.494;7.546;2023-10-31T12:37:53;99498.75;;;17.07;70.85
40788;BME280;26497;52.494;7.546;2023-10-31T12:40:24;99500.56;;;17.07;70.85
40788;BME280;26497;52.494;7.546;2023-10-31T12:42:52;99510.41;;;17.05;70.93
40788;BME280;26497;52.494;7.546;2023-10-31T12:45:21;99517.19;;;16.91;71.26
40788;BME280;26497;52.494;7.546;2023-10-31T12:48:01;99510.34;;;16.86;72.38
40788;BME280;26497;52.494;7.546;2023-10-31T12:50:29;99517.25;;;16.90;72.07
40788;BME280;26497;52.494;7.546;2023-10-31T12:52:57;99515.53;;;17.09;71.73
40788;BME280;26497;52.494;7.546;2023-10-31T12:55:27;99509.34;;;17.28;71.76
40788;BME280;26497;52.494;7.546;2023-10-31T12:57:54;99517.56;;;17.43;70.94
40788;BME280;26497;52.494;7.546;2023-10-31T13:00:31;99523.72;;;17.43;70.91
40788;BME280;26497;52.494;7.546;2023-10-31T13:03:00;99524.31;;;17.50;70.75
40788;BME280;26497;52.494;7.546;2023-10-31T13:05:28;99525.75;;;17.57;71.13